Terminal Aerodrome Forecast
Issued by NWS

Home | Current Version | Previous Version | Text Only | Print | Product List | Glossary Off
Versions: 1 2 3 4 5 6 7 8 9 10 11 12 13 14 15 16 17 18 19 20 21 22 23 24 25 26 27 28 29 30 31

000
FTUS43 KGRB 261500 AAB
TAFRHI
TAF AMD
KRHI 261559Z 2616/2712 33010G16KT P6SM -SHSN OVC025
     FM262200 34008KT P6SM BKN030
     FM270200 34005KT P6SM SCT030=

USA.gov is the U.S. government's official web portal to all federal, state and local government web resources and services.